sensor_id;sensor_type;location;lat;lon;timestamp;temperature;humidity
14934;DHT22;7560;51.364;12.384;2023-03-21T00:03:58;10.60;99.90
14934;DHT22;7560;51.364;12.384;2023-03-21T00:09:00;10.60;99.90
14934;DHT22;7560;51.364;12.384;2023-03-21T00:14:02;10.60;99.90
14934;DHT22;7560;51.364;12.384;2023-03-21T00:19:03;10.60;99.90
14934;DHT22;7560;51.364;12.384;2023-03-21T00:24:06;10.60;99.90
14934;DHT22;7560;51.364;12.384;2023-03-21T00:29:08;10.60;99.90
14934;DHT22;7560;51.364;12.384;2023-03-21T00:34:10;10.60;99.90
14934;DHT22;7560;51.364;12.384;2023-03-21T00:39:13;10.50;99.90
14934;DHT22;7560;51.364;12.384;2023-03-21T00:44:15;10.50;99.90
14934;DHT22;7560;51.364;12.384;2023-03-21T00:49:18;10.40;99.90
14934;DHT22;7560;51.364;12.384;2023-03-21T00:54:22;10.40;99.90
14934;DHT22;7560;51.364;12.384;2023-03-21T00:59:24;10.30;99.90
14934;DHT22;7560;51.364;12.384;2023-03-21T01:04:27;10.10;99.90
14934;DHT22;7560;51.364;12.384;2023-03-21T01:09:29;9.80;99.90
14934;DHT22;7560;51.364;12.384;2023-03-21T01:14:30;9.30;99.90
14934;DHT22;7560;51.364;12.384;2023-03-21T01:19:32;8.90;99.90
14934;DHT22;7560;51.364;12.384;2023-03-21T01:24:51;8.90;99.90
14934;DHT22;7560;51.364;12.384;2023-03-21T01:30:01;9.00;99.90
14934;DHT22;7560;51.364;12.384;2023-03-21T01:35:09;9.00;99.90
14934;DHT22;7560;51.364;12.384;2023-03-21T01:40:16;8.90;99.90
14934;DHT22;7560;51.364;12.384;2023-03-21T01:50:58;9.20;99.90
14934;DHT22;7560;51.364;12.384;2023-03-21T01:56:32;9.20;99.90
14934;DHT22;7560;51.364;12.384;2023-03-21T02:01:34;9.30;99.90
14934;DHT22;7560;51.364;12.384;2023-03-21T02:07:22;9.30;99.90
14934;DHT22;7560;51.364;12.384;2023-03-21T02:12:25;9.40;99.90
14934;DHT22;7560;51.364;12.384;2023-03-21T02:28:14;9.40;99.90
14934;DHT22;7560;51.364;12.384;2023-03-21T02:50:09;9.50;99.90
14934;DHT22;7560;51.364;12.384;2023-03-21T02:55:24;9.50;99.90
14934;DHT22;7560;51.364;12.384;2023-03-21T03:00:31;9.50;99.90
14934;DHT22;7560;51.364;12.384;2023-03-21T03:05:36;9.60;99.90
14934;DHT22;7560;51.364;12.384;2023-03-21T03:26:20;9.50;99.90
14934;DHT22;7560;51.364;12.384;2023-03-21T03:31:28;9.50;99.90
14934;DHT22;7560;51.364;12.384;2023-03-21T03:36:35;9.50;99.90
14934;DHT22;7560;51.364;12.384;2023-03-21T03:41:46;9.60;99.90
14934;DHT22;7560;51.364;12.384;2023-03-21T03:47:15;9.60;99.90
14934;DHT22;7560;51.364;12.384;2023-03-21T03:52:38;9.60;99.90
14934;DHT22;7560;51.364;12.384;2023-03-21T03:57:54;9.50;99.90
14934;DHT22;7560;51.364;12.384;2023-03-21T04:02:56;9.60;99.90
14934;DHT22;7560;51.364;12.384;2023-03-21T04:08:00;9.60;99.90
14934;DHT22;7560;51.364;12.384;2023-03-21T04:13:02;9.60;99.90
14934;DHT22;7560;51.364;12.384;2023-03-21T04:18:05;9.50;99.90
14934;DHT22;7560;51.364;12.384;2023-03-21T04:23:07;9.50;99.90
14934;DHT22;7560;51.364;12.384;2023-03-21T04:28:08;9.40;99.90
14934;DHT22;7560;51.364;12.384;2023-03-21T04:33:10;9.40;99.90
14934;DHT22;7560;51.364;12.384;2023-03-21T04:38:12;9.50;99.90
14934;DHT22;7560;51.364;12.384;2023-03-21T04:43:14;9.50;99.90
14934;DHT22;7560;51.364;12.384;2023-03-21T04:48:17;9.50;99.90
14934;DHT22;7560;51.364;12.384;2023-03-21T04:53:20;9.70;99.90
14934;DHT22;7560;51.364;12.384;2023-03-21T04:58:21;9.60;99.90
14934;DHT22;7560;51.364;12.384;2023-03-21T05:03:24;9.60;99.90
14934;DHT22;7560;51.364;12.384;2023-03-21T05:08:26;9.70;99.90
14934;DHT22;7560;51.364;12.384;2023-03-21T05:13:28;9.70;99.90
14934;DHT22;7560;51.364;12.384;2023-03-21T05:18:29;9.80;99.90
14934;DHT22;7560;51.364;12.384;2023-03-21T05:23:36;9.60;99.90
14934;DHT22;7560;51.364;12.384;2023-03-21T05:28:42;9.50;99.90
14934;DHT22;7560;51.364;12.384;2023-03-21T05:33:45;9.60;99.90
14934;DHT22;7560;51.364;12.384;2023-03-21T05:38:47;9.70;99.90
14934;DHT22;7560;51.364;12.384;2023-03-21T05:43:49;9.80;99.90
14934;DHT22;7560;51.364;12.384;2023-03-21T05:48:51;9.90;99.90
14934;DHT22;7560;51.364;12.384;2023-03-21T05:53:53;9.90;99.90
14934;DHT22;7560;51.364;12.384;2023-03-21T05:58:55;10.00;99.90
14934;DHT22;7560;51.364;12.384;2023-03-21T06:03:56;10.00;99.90
14934;DHT22;7560;51.364;12.384;2023-03-21T06:08:59;10.10;99.90
14934;DHT22;7560;51.364;12.384;2023-03-21T06:14:01;10.20;99.90
14934;DHT22;7560;51.364;12.384;2023-03-21T06:19:03;10.20;99.90
14934;DHT22;7560;51.364;12.384;2023-03-21T06:24:05;10.20;99.90
14934;DHT22;7560;51.364;12.384;2023-03-21T06:29:08;10.40;99.90
14934;DHT22;7560;51.364;12.384;2023-03-21T06:34:10;10.60;99.90
14934;DHT22;7560;51.364;12.384;2023-03-21T06:39:12;10.70;99.90
14934;DHT22;7560;51.364;12.384;2023-03-21T06:44:14;10.80;99.90
14934;DHT22;7560;51.364;12.384;2023-03-21T06:49:17;10.80;99.90
14934;DHT22;7560;51.364;12.384;2023-03-21T06:54:19;11.00;99.90
14934;DHT22;7560;51.364;12.384;2023-03-21T06:59:21;11.00;99.90
14934;DHT22;7560;51.364;12.384;2023-03-21T07:04:23;11.00;99.90
14934;DHT22;7560;51.364;12.384;2023-03-21T07:09:25;11.00;99.90
14934;DHT22;7560;51.364;12.384;2023-03-21T07:14:28;11.10;99.90
14934;DHT22;7560;51.364;12.384;2023-03-21T07:19:32;11.30;99.90
14934;DHT22;7560;51.364;12.384;2023-03-21T07:24:34;11.50;99.90
14934;DHT22;7560;51.364;12.384;2023-03-21T07:29:35;11.60;99.90
14934;DHT22;7560;51.364;12.384;2023-03-21T07:34:37;11.50;99.90
14934;DHT22;7560;51.364;12.384;2023-03-21T07:39:39;11.40;99.90
14934;DHT22;7560;51.364;12.384;2023-03-21T07:44:41;11.60;99.90
14934;DHT22;7560;51.364;12.384;2023-03-21T07:49:43;12.00;99.90
14934;DHT22;7560;51.364;12.384;2023-03-21T07:54:45;12.10;99.90
14934;DHT22;7560;51.364;12.384;2023-03-21T07:59:46;12.20;99.90
14934;DHT22;7560;51.364;12.384;2023-03-21T08:04:48;12.10;99.90
14934;DHT22;7560;51.364;12.384;2023-03-21T08:09:50;12.30;99.90
14934;DHT22;7560;51.364;12.384;2023-03-21T08:14:52;12.30;99.90
14934;DHT22;7560;51.364;12.384;2023-03-21T08:19:53;12.50;99.90
14934;DHT22;7560;51.364;12.384;2023-03-21T08:24:55;12.80;99.90
14934;DHT22;7560;51.364;12.384;2023-03-21T08:29:58;13.00;99.90
14934;DHT22;7560;51.364;12.384;2023-03-21T08:35:00;13.40;99.90
14934;DHT22;7560;51.364;12.384;2023-03-21T08:40:05;13.50;99.90
14934;DHT22;7560;51.364;12.384;2023-03-21T08:45:10;13.40;99.90
14934;DHT22;7560;51.364;12.384;2023-03-21T08:50:16;13.60;99.90
14934;DHT22;7560;51.364;12.384;2023-03-21T08:55:18;13.90;99.90
14934;DHT22;7560;51.364;12.384;2023-03-21T09:00:20;14.00;99.90
14934;DHT22;7560;51.364;12.384;2023-03-21T09:05:22;14.00;99.90
14934;DHT22;7560;51.364;12.384;2023-03-21T09:10:26;13.90;99.90
14934;DHT22;7560;51.364;12.384;2023-03-21T09:15:28;14.00;99.90
14934;DHT22;7560;51.364;12.384;2023-03-21T09:20:30;14.00;99.90
14934;DHT22;7560;51.364;12.384;2023-03-21T09:25:33;14.00;99.90
14934;DHT22;7560;51.364;12.384;2023-03-21T09:30:36;14.30;99.90
14934;DHT22;7560;51.364;12.384;2023-03-21T09:35:38;14.60;99.90
14934;DHT22;7560;51.364;12.384;2023-03-21T09:41:00;14.70;99.90
14934;DHT22;7560;51.364;12.384;2023-03-21T09:46:33;14.90;99.90
14934;DHT22;7560;51.364;12.384;2023-03-21T09:51:40;14.70;99.90
14934;DHT22;7560;51.364;12.384;2023-03-21T09:56:48;14.80;99.90
14934;DHT22;7560;51.364;12.384;2023-03-21T10:01:51;14.90;99.90
14934;DHT22;7560;51.364;12.384;2023-03-21T10:06:57;15.00;99.90
14934;DHT22;7560;51.364;12.384;2023-03-21T10:12:04;14.80;99.90
14934;DHT22;7560;51.364;12.384;2023-03-21T10:17:33;14.80;99.90
14934;DHT22;7560;51.364;12.384;2023-03-21T10:22:37;14.60;99.90
14934;DHT22;7560;51.364;12.384;2023-03-21T10:27:39;14.60;99.90
14934;DHT22;7560;51.364;12.384;2023-03-21T10:32:41;14.60;99.90
14934;DHT22;7560;51.364;12.384;2023-03-21T10:37:43;14.80;99.90
14934;DHT22;7560;51.364;12.384;2023-03-21T10:42:44;14.60;99.90
14934;DHT22;7560;51.364;12.384;2023-03-21T10:47:48;14.70;99.90
14934;DHT22;7560;51.364;12.384;2023-03-21T10:52:54;14.90;99.90
14934;DHT22;7560;51.364;12.384;2023-03-21T10:58:07;15.10;99.90
14934;DHT22;7560;51.364;12.384;2023-03-21T11:03:21;15.10;99.90
14934;DHT22;7560;51.364;12.384;2023-03-21T11:08:24;15.40;99.90
14934;DHT22;7560;51.364;12.384;2023-03-21T11:18:44;15.40;99.90
14934;DHT22;7560;51.364;12.384;2023-03-21T11:23:50;15.30;99.90
14934;DHT22;7560;51.364;12.384;2023-03-21T11:28:53;15.10;99.90
14934;DHT22;7560;51.364;12.384;2023-03-21T11:33:57;15.30;99.90
14934;DHT22;7560;51.364;12.384;2023-03-21T11:39:30;15.50;99.90
14934;DHT22;7560;51.364;12.384;2023-03-21T11:44:40;15.90;99.90
14934;DHT22;7560;51.364;12.384;2023-03-21T11:49:43;16.30;99.90
14934;DHT22;7560;51.364;12.384;2023-03-21T11:54:58;16.70;99.90
14934;DHT22;7560;51.364;12.384;2023-03-21T12:05:17;16.80;99.90
14934;DHT22;7560;51.364;12.384;2023-03-21T12:21:08;17.40;99.90
14934;DHT22;7560;51.364;12.384;2023-03-21T12:26:27;17.50;99.90
14934;DHT22;7560;51.364;12.384;2023-03-21T12:47:30;17.70;99.90
14934;DHT22;7560;51.364;12.384;2023-03-21T12:52:39;17.90;99.90
14934;DHT22;7560;51.364;12.384;2023-03-21T12:57:57;18.10;99.90
14934;DHT22;7560;51.364;12.384;2023-03-21T13:03:22;18.10;99.90
14934;DHT22;7560;51.364;12.384;2023-03-21T13:14:27;18.10;99.90
14934;DHT22;7560;51.364;12.384;2023-03-21T13:19:49;18.40;99.90
14934;DHT22;7560;51.364;12.384;2023-03-21T13:24:57;18.70;99.90
14934;DHT22;7560;51.364;12.384;2023-03-21T13:30:19;18.80;99.90
14934;DHT22;7560;51.364;12.384;2023-03-21T13:35:43;18.90;99.90
14934;DHT22;7560;51.364;12.384;2023-03-21T13:40:51;19.00;99.90
14934;DHT22;7560;51.364;12.384;2023-03-21T13:51:10;19.00;99.90
14934;DHT22;7560;51.364;12.384;2023-03-21T14:01:33;19.40;99.90
14934;DHT22;7560;51.364;12.384;2023-03-21T14:12:02;19.10;99.90
14934;DHT22;7560;51.364;12.384;2023-03-21T14:17:29;19.00;99.90
14934;DHT22;7560;51.364;12.384;2023-03-21T14:22:32;18.60;99.90
14934;DHT22;7560;51.364;12.384;2023-03-21T14:27:35;18.40;99.90
14934;DHT22;7560;51.364;12.384;2023-03-21T14:32:39;18.30;99.90
14934;DHT22;7560;51.364;12.384;2023-03-21T14:37:43;18.40;99.90
14934;DHT22;7560;51.364;12.384;2023-03-21T14:42:47;18.30;99.90
14934;DHT22;7560;51.364;12.384;2023-03-21T14:48:07;18.10;99.90
14934;DHT22;7560;51.364;12.384;2023-03-21T14:53:14;18.00;99.90
14934;DHT22;7560;51.364;12.384;2023-03-21T14:58:17;18.20;99.90
14934;DHT22;7560;51.364;12.384;2023-03-21T15:03:22;18.40;99.90
14934;DHT22;7560;51.364;12.384;2023-03-21T15:08:28;18.40;99.90
14934;DHT22;7560;51.364;12.384;2023-03-21T15:13:46;18.40;99.90
14934;DHT22;7560;51.364;12.384;2023-03-21T15:18:51;18.20;99.90
14934;DHT22;7560;51.364;12.384;2023-03-21T15:23:56;18.30;99.90
14934;DHT22;7560;51.364;12.384;2023-03-21T15:28:59;18.30;99.90
14934;DHT22;7560;51.364;12.384;2023-03-21T15:34:03;18.30;99.90
14934;DHT22;7560;51.364;12.384;2023-03-21T15:39:10;18.30;99.90
14934;DHT22;7560;51.364;12.384;2023-03-21T15:44:13;18.10;99.90
14934;DHT22;7560;51.364;12.384;2023-03-21T15:54:21;17.90;99.90
14934;DHT22;7560;51.364;12.384;2023-03-21T15:59:27;17.90;99.90
14934;DHT22;7560;51.364;12.384;2023-03-21T16:04:30;17.90;99.90
14934;DHT22;7560;51.364;12.384;2023-03-21T16:09:43;17.60;99.90
14934;DHT22;7560;51.364;12.384;2023-03-21T16:14:45;17.20;99.90
14934;DHT22;7560;51.364;12.384;2023-03-21T16:19:49;17.10;99.90
14934;DHT22;7560;51.364;12.384;2023-03-21T16:24:51;17.00;99.90
14934;DHT22;7560;51.364;12.384;2023-03-21T16:29:54;16.90;99.90
14934;DHT22;7560;51.364;12.384;2023-03-21T16:34:56;16.90;99.90
14934;DHT22;7560;51.364;12.384;2023-03-21T16:39:58;16.70;99.90
14934;DHT22;7560;51.364;12.384;2023-03-21T16:45:00;16.50;99.90
14934;DHT22;7560;51.364;12.384;2023-03-21T16:55:27;16.30;99.90
14934;DHT22;7560;51.364;12.384;2023-03-21T17:00:30;16.20;99.90
14934;DHT22;7560;51.364;12.384;2023-03-21T17:05:33;16.10;99.90
14934;DHT22;7560;51.364;12.384;2023-03-21T17:10:34;16.10;99.90
14934;DHT22;7560;51.364;12.384;2023-03-21T17:15:38;16.00;99.90
14934;DHT22;7560;51.364;12.384;2023-03-21T17:20:42;16.00;99.90
14934;DHT22;7560;51.364;12.384;2023-03-21T17:25:43;15.90;99.90
14934;DHT22;7560;51.364;12.384;2023-03-21T17:30:45;15.80;99.90
14934;DHT22;7560;51.364;12.384;2023-03-21T17:35:47;15.80;99.90
14934;DHT22;7560;51.364;12.384;2023-03-21T17:40:52;15.70;99.90
14934;DHT22;7560;51.364;12.384;2023-03-21T17:45:54;15.60;99.90
14934;DHT22;7560;51.364;12.384;2023-03-21T17:50:58;15.50;99.90
14934;DHT22;7560;51.364;12.384;2023-03-21T17:56:00;15.30;99.90
14934;DHT22;7560;51.364;12.384;2023-03-21T18:01:02;15.20;99.90
14934;DHT22;7560;51.364;12.384;2023-03-21T18:06:05;15.00;99.90
14934;DHT22;7560;51.364;12.384;2023-03-21T18:11:07;14.80;99.90
14934;DHT22;7560;51.364;12.384;2023-03-21T18:16:15;14.60;99.90
14934;DHT22;7560;51.364;12.384;2023-03-21T18:21:17;14.50;99.90
14934;DHT22;7560;51.364;12.384;2023-03-21T18:26:21;14.40;99.90
14934;DHT22;7560;51.364;12.384;2023-03-21T18:31:24;14.00;99.90
14934;DHT22;7560;51.364;12.384;2023-03-21T18:36:27;13.90;99.90
14934;DHT22;7560;51.364;12.384;2023-03-21T18:41:30;13.80;99.90
14934;DHT22;7560;51.364;12.384;2023-03-21T18:46:32;13.80;99.90
14934;DHT22;7560;51.364;12.384;2023-03-21T18:51:34;13.70;99.90
14934;DHT22;7560;51.364;12.384;2023-03-21T18:56:37;13.60;99.90
14934;DHT22;7560;51.364;12.384;2023-03-21T19:01:59;13.50;99.90
14934;DHT22;7560;51.364;12.384;2023-03-21T19:07:02;13.50;99.90
14934;DHT22;7560;51.364;12.384;2023-03-21T19:12:06;13.30;99.90
14934;DHT22;7560;51.364;12.384;2023-03-21T19:17:09;13.10;99.90
14934;DHT22;7560;51.364;12.384;2023-03-21T19:22:31;13.10;99.90
14934;DHT22;7560;51.364;12.384;2023-03-21T19:27:34;13.10;99.90
14934;DHT22;7560;51.364;12.384;2023-03-21T19:32:36;13.10;99.90
14934;DHT22;7560;51.364;12.384;2023-03-21T19:37:38;13.00;99.90
14934;DHT22;7560;51.364;12.384;2023-03-21T19:42:40;12.80;99.90
14934;DHT22;7560;51.364;12.384;2023-03-21T19:47:43;12.80;99.90
14934;DHT22;7560;51.364;12.384;2023-03-21T19:52:45;12.80;99.90
14934;DHT22;7560;51.364;12.384;2023-03-21T19:57:47;12.70;99.90
14934;DHT22;7560;51.364;12.384;2023-03-21T20:02:49;12.70;99.90
14934;DHT22;7560;51.364;12.384;2023-03-21T20:07:58;12.60;99.90
14934;DHT22;7560;51.364;12.384;2023-03-21T20:13:00;12.60;99.90
14934;DHT22;7560;51.364;12.384;2023-03-21T20:18:02;12.60;99.90
14934;DHT22;7560;51.364;12.384;2023-03-21T20:23:04;12.50;99.90
14934;DHT22;7560;51.364;12.384;2023-03-21T20:28:09;12.40;99.90
14934;DHT22;7560;51.364;12.384;2023-03-21T20:33:23;12.40;99.90
14934;DHT22;7560;51.364;12.384;2023-03-21T20:38:25;12.40;99.90
14934;DHT22;7560;51.364;12.384;2023-03-21T20:43:27;12.40;99.90
14934;DHT22;7560;51.364;12.384;2023-03-21T20:48:49;12.30;99.90
14934;DHT22;7560;51.364;12.384;2023-03-21T20:53:53;12.30;99.90
14934;DHT22;7560;51.364;12.384;2023-03-21T20:58:55;12.30;99.90
14934;DHT22;7560;51.364;12.384;2023-03-21T21:04:17;12.30;99.90
14934;DHT22;7560;51.364;12.384;2023-03-21T21:09:21;12.20;99.90
14934;DHT22;7560;51.364;12.384;2023-03-21T21:14:23;12.10;99.90
14934;DHT22;7560;51.364;12.384;2023-03-21T21:19:25;12.20;99.90
14934;DHT22;7560;51.364;12.384;2023-03-21T21:24:27;12.20;99.90
14934;DHT22;7560;51.364;12.384;2023-03-21T21:29:29;12.10;99.90
14934;DHT22;7560;51.364;12.384;2023-03-21T21:34:33;12.10;99.90
14934;DHT22;7560;51.364;12.384;2023-03-21T21:39:37;12.10;99.90
14934;DHT22;7560;51.364;12.384;2023-03-21T21:44:39;12.10;99.90
14934;DHT22;7560;51.364;12.384;2023-03-21T21:49:44;12.10;99.90
14934;DHT22;7560;51.364;12.384;2023-03-21T21:54:47;12.00;99.90
14934;DHT22;7560;51.364;12.384;2023-03-21T21:59:49;11.90;99.90
14934;DHT22;7560;51.364;12.384;2023-03-21T22:04:55;12.00;99.90
14934;DHT22;7560;51.364;12.384;2023-03-21T22:09:57;12.00;99.90
14934;DHT22;7560;51.364;12.384;2023-03-21T22:14:59;12.00;99.90
14934;DHT22;7560;51.364;12.384;2023-03-21T22:20:01;11.80;99.90
14934;DHT22;7560;51.364;12.384;2023-03-21T22:25:13;11.80;99.90
14934;DHT22;7560;51.364;12.384;2023-03-21T22:30:16;11.80;99.90
14934;DHT22;7560;51.364;12.384;2023-03-21T22:35:18;11.70;99.90
14934;DHT22;7560;51.364;12.384;2023-03-21T22:40:20;11.70;99.90
14934;DHT22;7560;51.364;12.384;2023-03-21T22:45:22;11.60;99.90
14934;DHT22;7560;51.364;12.384;2023-03-21T22:50:23;11.60;99.90
14934;DHT22;7560;51.364;12.384;2023-03-21T22:55:25;11.50;99.90
14934;DHT22;7560;51.364;12.384;2023-03-21T23:00:27;11.40;99.90
14934;DHT22;7560;51.364;12.384;2023-03-21T23:05:29;11.20;99.90
14934;DHT22;7560;51.364;12.384;2023-03-21T23:10:31;11.00;99.90
14934;DHT22;7560;51.364;12.384;2023-03-21T23:15:32;10.90;99.90
14934;DHT22;7560;51.364;12.384;2023-03-21T23:20:34;10.80;99.90
14934;DHT22;7560;51.364;12.384;2023-03-21T23:25:36;10.80;99.90
14934;DHT22;7560;51.364;12.384;2023-03-21T23:30:42;10.80;99.90
14934;DHT22;7560;51.364;12.384;2023-03-21T23:35:43;10.80;99.90
14934;DHT22;7560;51.364;12.384;2023-03-21T23:40:46;10.70;99.90
14934;DHT22;7560;51.364;12.384;2023-03-21T23:45:48;10.60;99.90
14934;DHT22;7560;51.364;12.384;2023-03-21T23:50:50;10.60;99.90
14934;DHT22;7560;51.364;12.384;2023-03-21T23:55:52;10.60;99.90
